Keating Summit, Pennsylvania
Current Conditions -  °F | °C
As of 9:53 AM on Monday 22 Dec 2014 (Local Time) from KBFD Reporting Station
Haze Haze  
Wind Chill: 16°   Ceiling: Unl
Heat Index: 25°   Visibility: 6mi
Dew Point: 20°   Wind: 9mph
Humidity: 81%   Direction: 150°SSE
Pressure: 30.13"   Gusts: NA
Location:  41.791°N, 78.5153°W
Report Text: KBFD 221453Z AUTO 15008KT 6SM HZ CLR M04/M07 A3013 RMK AO2 SLP231 T10391067 50003
Loading
Personal Weather Stations






























Interactive Weather Map New forecast layout! Learn more

10-Day Weather Forecast

Advertisements
Track Severe Weather on mobile